sensor_id;sensor_type;location;lat;lon;timestamp;P1;durP1;ratioP1;P2;durP2;ratioP2
60704;SDS011;46545;38.014;-7.874;2022-07-06T00:00:45;18.98;;;5.45;;
60704;SDS011;46545;38.014;-7.874;2022-07-06T00:02:45;12.20;;;5.50;;
60704;SDS011;46545;38.014;-7.874;2022-07-06T00:04:46;16.98;;;5.78;;
60704;SDS011;46545;38.014;-7.874;2022-07-06T00:06:47;10.75;;;5.55;;
60704;SDS011;46545;38.014;-7.874;2022-07-06T00:08:48;24.45;;;7.65;;
60704;SDS011;46545;38.014;-7.874;2022-07-06T00:10:49;16.90;;;5.32;;
60704;SDS011;46545;38.014;-7.874;2022-07-06T00:12:50;21.23;;;6.63;;
60704;SDS011;46545;38.014;-7.874;2022-07-06T00:14:51;23.10;;;6.30;;
60704;SDS011;46545;38.014;-7.874;2022-07-06T00:16:52;20.70;;;6.90;;
60704;SDS011;46545;38.014;-7.874;2022-07-06T00:18:53;14.90;;;6.25;;
60704;SDS011;46545;38.014;-7.874;2022-07-06T00:20:54;13.77;;;5.55;;
60704;SDS011;46545;38.014;-7.874;2022-07-06T00:22:55;19.70;;;6.10;;
60704;SDS011;46545;38.014;-7.874;2022-07-06T00:24:55;14.55;;;6.70;;
60704;SDS011;46545;38.014;-7.874;2022-07-06T00:26:56;19.00;;;5.80;;
60704;SDS011;46545;38.014;-7.874;2022-07-06T00:28:57;17.25;;;6.38;;
60704;SDS011;46545;38.014;-7.874;2022-07-06T00:30:57;12.77;;;5.68;;
60704;SDS011;46545;38.014;-7.874;2022-07-06T00:32:59;15.18;;;6.53;;
60704;SDS011;46545;38.014;-7.874;2022-07-06T00:34:59;20.23;;;8.20;;
60704;SDS011;46545;38.014;-7.874;2022-07-06T00:37:00;16.98;;;6.43;;
60704;SDS011;46545;38.014;-7.874;2022-07-06T00:39:01;17.13;;;6.57;;
60704;SDS011;46545;38.014;-7.874;2022-07-06T00:41:01;11.57;;;6.65;;
60704;SDS011;46545;38.014;-7.874;2022-07-06T00:43:02;23.35;;;7.53;;
60704;SDS011;46545;38.014;-7.874;2022-07-06T00:45:03;14.50;;;6.35;;
60704;SDS011;46545;38.014;-7.874;2022-07-06T00:47:05;18.67;;;7.25;;
60704;SDS011;46545;38.014;-7.874;2022-07-06T00:49:08;24.20;;;7.00;;
60704;SDS011;46545;38.014;-7.874;2022-07-06T00:51:29;23.20;;;7.78;;
60704;SDS011;46545;38.014;-7.874;2022-07-06T00:53:31;21.52;;;7.85;;
60704;SDS011;46545;38.014;-7.874;2022-07-06T00:55:36;19.98;;;8.63;;
60704;SDS011;46545;38.014;-7.874;2022-07-06T00:57:41;22.17;;;8.73;;
60704;SDS011;46545;38.014;-7.874;2022-07-06T00:59:43;20.45;;;9.35;;
60704;SDS011;46545;38.014;-7.874;2022-07-06T01:01:43;22.15;;;10.93;;
60704;SDS011;46545;38.014;-7.874;2022-07-06T01:03:44;23.23;;;10.02;;
60704;SDS011;46545;38.014;-7.874;2022-07-06T01:05:45;20.80;;;8.88;;
60704;SDS011;46545;38.014;-7.874;2022-07-06T01:07:48;22.15;;;10.15;;
60704;SDS011;46545;38.014;-7.874;2022-07-06T01:09:50;21.25;;;9.23;;
60704;SDS011;46545;38.014;-7.874;2022-07-06T01:11:52;25.40;;;10.73;;
60704;SDS011;46545;38.014;-7.874;2022-07-06T01:13:53;24.17;;;10.73;;
60704;SDS011;46545;38.014;-7.874;2022-07-06T01:15:56;23.52;;;10.10;;
60704;SDS011;46545;38.014;-7.874;2022-07-06T01:17:57;20.95;;;10.23;;
60704;SDS011;46545;38.014;-7.874;2022-07-06T01:20:10;23.75;;;9.05;;
60704;SDS011;46545;38.014;-7.874;2022-07-06T01:22:12;28.48;;;11.70;;
60704;SDS011;46545;38.014;-7.874;2022-07-06T01:24:13;23.60;;;11.43;;
60704;SDS011;46545;38.014;-7.874;2022-07-06T01:26:15;30.15;;;11.13;;
60704;SDS011;46545;38.014;-7.874;2022-07-06T01:28:20;20.65;;;10.32;;
60704;SDS011;46545;38.014;-7.874;2022-07-06T01:30:21;23.13;;;9.73;;
60704;SDS011;46545;38.014;-7.874;2022-07-06T01:32:21;20.73;;;9.10;;
60704;SDS011;46545;38.014;-7.874;2022-07-06T01:34:22;28.38;;;10.85;;
60704;SDS011;46545;38.014;-7.874;2022-07-06T01:36:23;29.08;;;10.02;;
60704;SDS011;46545;38.014;-7.874;2022-07-06T01:38:25;22.83;;;9.32;;
60704;SDS011;46545;38.014;-7.874;2022-07-06T01:40:25;25.83;;;12.00;;
60704;SDS011;46545;38.014;-7.874;2022-07-06T01:42:27;19.63;;;8.43;;
60704;SDS011;46545;38.014;-7.874;2022-07-06T01:44:28;21.70;;;9.27;;
60704;SDS011;46545;38.014;-7.874;2022-07-06T01:46:30;23.23;;;9.05;;
60704;SDS011;46545;38.014;-7.874;2022-07-06T01:48:31;21.25;;;9.80;;
60704;SDS011;46545;38.014;-7.874;2022-07-06T01:50:32;24.38;;;9.50;;
60704;SDS011;46545;38.014;-7.874;2022-07-06T01:52:32;28.13;;;10.30;;
60704;SDS011;46545;38.014;-7.874;2022-07-06T01:54:35;22.25;;;9.57;;
60704;SDS011;46545;38.014;-7.874;2022-07-06T01:56:38;19.35;;;9.13;;
60704;SDS011;46545;38.014;-7.874;2022-07-06T01:58:40;17.13;;;8.73;;
60704;SDS011;46545;38.014;-7.874;2022-07-06T02:00:42;18.23;;;9.65;;
60704;SDS011;46545;38.014;-7.874;2022-07-06T02:02:43;22.75;;;9.80;;
60704;SDS011;46545;38.014;-7.874;2022-07-06T02:04:46;16.92;;;9.05;;
60704;SDS011;46545;38.014;-7.874;2022-07-06T02:06:46;17.20;;;9.35;;
60704;SDS011;46545;38.014;-7.874;2022-07-06T02:08:48;18.58;;;8.73;;
60704;SDS011;46545;38.014;-7.874;2022-07-06T02:10:49;22.70;;;10.25;;
60704;SDS011;46545;38.014;-7.874;2022-07-06T02:12:51;17.85;;;9.50;;
60704;SDS011;46545;38.014;-7.874;2022-07-06T02:14:52;24.30;;;10.40;;
60704;SDS011;46545;38.014;-7.874;2022-07-06T02:16:52;22.67;;;11.15;;
60704;SDS011;46545;38.014;-7.874;2022-07-06T02:18:53;23.88;;;11.38;;
60704;SDS011;46545;38.014;-7.874;2022-07-06T02:20:54;21.83;;;10.43;;
60704;SDS011;46545;38.014;-7.874;2022-07-06T02:22:55;20.08;;;10.30;;
60704;SDS011;46545;38.014;-7.874;2022-07-06T02:24:56;21.50;;;10.20;;
60704;SDS011;46545;38.014;-7.874;2022-07-06T02:26:57;18.58;;;8.85;;
60704;SDS011;46545;38.014;-7.874;2022-07-06T02:28:58;28.65;;;10.88;;
60704;SDS011;46545;38.014;-7.874;2022-07-06T02:30:59;22.88;;;10.50;;
60704;SDS011;46545;38.014;-7.874;2022-07-06T02:33:01;27.13;;;10.45;;
60704;SDS011;46545;38.014;-7.874;2022-07-06T02:35:03;19.35;;;9.88;;
60704;SDS011;46545;38.014;-7.874;2022-07-06T02:37:04;23.83;;;9.88;;
60704;SDS011;46545;38.014;-7.874;2022-07-06T02:39:04;25.50;;;10.43;;
60704;SDS011;46545;38.014;-7.874;2022-07-06T02:41:05;23.95;;;9.95;;
60704;SDS011;46545;38.014;-7.874;2022-07-06T02:43:07;24.45;;;10.32;;
60704;SDS011;46545;38.014;-7.874;2022-07-06T02:45:09;24.08;;;10.60;;
60704;SDS011;46545;38.014;-7.874;2022-07-06T02:47:10;28.42;;;10.98;;
60704;SDS011;46545;38.014;-7.874;2022-07-06T02:49:11;25.15;;;10.63;;
60704;SDS011;46545;38.014;-7.874;2022-07-06T02:51:12;20.45;;;8.43;;
60704;SDS011;46545;38.014;-7.874;2022-07-06T02:53:13;27.88;;;9.70;;
60704;SDS011;46545;38.014;-7.874;2022-07-06T02:55:14;21.48;;;9.32;;
60704;SDS011;46545;38.014;-7.874;2022-07-06T02:57:16;26.92;;;10.10;;
60704;SDS011;46545;38.014;-7.874;2022-07-06T02:59:18;19.65;;;10.45;;
60704;SDS011;46545;38.014;-7.874;2022-07-06T03:01:20;29.35;;;11.27;;
60704;SDS011;46545;38.014;-7.874;2022-07-06T03:03:21;24.48;;;11.95;;
60704;SDS011;46545;38.014;-7.874;2022-07-06T03:05:22;24.20;;;10.73;;
60704;SDS011;46545;38.014;-7.874;2022-07-06T03:07:22;23.15;;;11.98;;
60704;SDS011;46545;38.014;-7.874;2022-07-06T03:09:23;25.25;;;10.45;;
60704;SDS011;46545;38.014;-7.874;2022-07-06T03:11:24;22.08;;;9.98;;
60704;SDS011;46545;38.014;-7.874;2022-07-06T03:13:26;27.75;;;12.00;;
60704;SDS011;46545;38.014;-7.874;2022-07-06T03:15:28;24.40;;;11.77;;
60704;SDS011;46545;38.014;-7.874;2022-07-06T03:17:29;27.25;;;12.80;;
60704;SDS011;46545;38.014;-7.874;2022-07-06T03:19:29;32.28;;;13.35;;
60704;SDS011;46545;38.014;-7.874;2022-07-06T03:21:31;27.35;;;12.55;;
60704;SDS011;46545;38.014;-7.874;2022-07-06T03:23:33;21.38;;;10.57;;
60704;SDS011;46545;38.014;-7.874;2022-07-06T03:25:34;22.33;;;11.98;;
60704;SDS011;46545;38.014;-7.874;2022-07-06T03:27:35;23.75;;;11.65;;
60704;SDS011;46545;38.014;-7.874;2022-07-06T03:29:36;22.48;;;11.38;;
60704;SDS011;46545;38.014;-7.874;2022-07-06T03:31:38;24.05;;;11.65;;
60704;SDS011;46545;38.014;-7.874;2022-07-06T03:33:39;32.88;;;13.82;;
60704;SDS011;46545;38.014;-7.874;2022-07-06T03:35:40;25.25;;;13.07;;
60704;SDS011;46545;38.014;-7.874;2022-07-06T03:37:43;28.17;;;13.85;;
60704;SDS011;46545;38.014;-7.874;2022-07-06T03:39:44;28.27;;;13.13;;
60704;SDS011;46545;38.014;-7.874;2022-07-06T03:41:45;29.50;;;14.07;;
60704;SDS011;46545;38.014;-7.874;2022-07-06T03:43:47;32.15;;;14.10;;
60704;SDS011;46545;38.014;-7.874;2022-07-06T03:45:47;28.42;;;13.63;;
60704;SDS011;46545;38.014;-7.874;2022-07-06T03:47:49;26.23;;;13.32;;
60704;SDS011;46545;38.014;-7.874;2022-07-06T03:49:50;22.08;;;12.55;;
60704;SDS011;46545;38.014;-7.874;2022-07-06T03:51:51;28.17;;;13.35;;
60704;SDS011;46545;38.014;-7.874;2022-07-06T03:53:52;24.25;;;13.32;;
60704;SDS011;46545;38.014;-7.874;2022-07-06T03:55:53;27.60;;;11.77;;
60704;SDS011;46545;38.014;-7.874;2022-07-06T03:58:13;25.02;;;13.27;;
60704;SDS011;46545;38.014;-7.874;2022-07-06T04:00:15;29.20;;;14.55;;
60704;SDS011;46545;38.014;-7.874;2022-07-06T04:02:18;33.25;;;15.25;;
60704;SDS011;46545;38.014;-7.874;2022-07-06T04:04:18;33.65;;;17.80;;
60704;SDS011;46545;38.014;-7.874;2022-07-06T04:06:21;30.15;;;15.07;;
60704;SDS011;46545;38.014;-7.874;2022-07-06T04:08:22;29.17;;;14.48;;
60704;SDS011;46545;38.014;-7.874;2022-07-06T04:10:28;32.72;;;15.68;;
60704;SDS011;46545;38.014;-7.874;2022-07-06T04:12:31;35.80;;;15.33;;
60704;SDS011;46545;38.014;-7.874;2022-07-06T04:14:33;29.67;;;15.27;;
60704;SDS011;46545;38.014;-7.874;2022-07-06T04:16:36;30.23;;;15.00;;
60704;SDS011;46545;38.014;-7.874;2022-07-06T04:18:37;39.25;;;16.25;;
60704;SDS011;46545;38.014;-7.874;2022-07-06T04:20:40;29.50;;;15.35;;
60704;SDS011;46545;38.014;-7.874;2022-07-06T04:22:40;32.25;;;15.77;;
60704;SDS011;46545;38.014;-7.874;2022-07-06T04:24:41;30.48;;;15.43;;
60704;SDS011;46545;38.014;-7.874;2022-07-06T04:26:42;27.02;;;14.60;;
60704;SDS011;46545;38.014;-7.874;2022-07-06T04:28:44;22.17;;;12.07;;
60704;SDS011;46545;38.014;-7.874;2022-07-06T04:30:44;27.67;;;13.70;;
60704;SDS011;46545;38.014;-7.874;2022-07-06T04:32:50;25.50;;;13.65;;
60704;SDS011;46545;38.014;-7.874;2022-07-06T04:34:51;26.35;;;13.30;;
60704;SDS011;46545;38.014;-7.874;2022-07-06T04:36:53;27.60;;;13.70;;
60704;SDS011;46545;38.014;-7.874;2022-07-06T04:38:53;28.35;;;14.63;;
60704;SDS011;46545;38.014;-7.874;2022-07-06T04:40:55;34.42;;;15.88;;
60704;SDS011;46545;38.014;-7.874;2022-07-06T04:42:55;26.00;;;14.80;;
60704;SDS011;46545;38.014;-7.874;2022-07-06T04:44:58;26.70;;;15.57;;
60704;SDS011;46545;38.014;-7.874;2022-07-06T04:46:59;29.23;;;14.32;;
60704;SDS011;46545;38.014;-7.874;2022-07-06T04:49:00;30.33;;;16.23;;
60704;SDS011;46545;38.014;-7.874;2022-07-06T04:51:03;28.30;;;14.98;;
60704;SDS011;46545;38.014;-7.874;2022-07-06T04:53:04;32.30;;;15.18;;
60704;SDS011;46545;38.014;-7.874;2022-07-06T04:55:08;26.58;;;14.52;;
60704;SDS011;46545;38.014;-7.874;2022-07-06T04:57:10;26.33;;;14.50;;
60704;SDS011;46545;38.014;-7.874;2022-07-06T04:59:11;27.38;;;14.75;;
60704;SDS011;46545;38.014;-7.874;2022-07-06T05:01:12;28.48;;;15.00;;
60704;SDS011;46545;38.014;-7.874;2022-07-06T05:03:13;35.00;;;17.23;;
60704;SDS011;46545;38.014;-7.874;2022-07-06T05:05:14;32.60;;;17.38;;
60704;SDS011;46545;38.014;-7.874;2022-07-06T05:07:16;34.50;;;16.10;;
60704;SDS011;46545;38.014;-7.874;2022-07-06T05:09:17;33.80;;;15.23;;
60704;SDS011;46545;38.014;-7.874;2022-07-06T05:11:19;26.77;;;15.13;;
60704;SDS011;46545;38.014;-7.874;2022-07-06T05:13:22;33.13;;;14.98;;
60704;SDS011;46545;38.014;-7.874;2022-07-06T05:15:23;31.42;;;15.65;;
60704;SDS011;46545;38.014;-7.874;2022-07-06T05:17:24;32.35;;;15.35;;
60704;SDS011;46545;38.014;-7.874;2022-07-06T05:19:25;28.00;;;15.55;;
60704;SDS011;46545;38.014;-7.874;2022-07-06T05:21:26;31.33;;;13.70;;
60704;SDS011;46545;38.014;-7.874;2022-07-06T05:23:27;35.33;;;14.10;;
60704;SDS011;46545;38.014;-7.874;2022-07-06T05:25:30;35.35;;;17.77;;
60704;SDS011;46545;38.014;-7.874;2022-07-06T05:27:33;38.50;;;16.88;;
60704;SDS011;46545;38.014;-7.874;2022-07-06T05:29:33;39.97;;;17.95;;
60704;SDS011;46545;38.014;-7.874;2022-07-06T05:31:34;38.25;;;17.65;;
60704;SDS011;46545;38.014;-7.874;2022-07-06T05:33:35;30.77;;;15.82;;
60704;SDS011;46545;38.014;-7.874;2022-07-06T05:35:36;36.33;;;18.33;;
60704;SDS011;46545;38.014;-7.874;2022-07-06T05:37:38;31.48;;;15.70;;
60704;SDS011;46545;38.014;-7.874;2022-07-06T05:39:39;35.33;;;17.33;;
60704;SDS011;46545;38.014;-7.874;2022-07-06T05:41:45;39.58;;;18.10;;
60704;SDS011;46545;38.014;-7.874;2022-07-06T05:43:46;39.15;;;19.55;;
60704;SDS011;46545;38.014;-7.874;2022-07-06T05:45:47;33.88;;;17.50;;
60704;SDS011;46545;38.014;-7.874;2022-07-06T05:47:50;34.75;;;18.98;;
60704;SDS011;46545;38.014;-7.874;2022-07-06T05:50:10;38.22;;;17.73;;
60704;SDS011;46545;38.014;-7.874;2022-07-06T05:52:18;42.75;;;20.45;;
60704;SDS011;46545;38.014;-7.874;2022-07-06T05:54:19;51.50;;;20.63;;
60704;SDS011;46545;38.014;-7.874;2022-07-06T05:56:20;38.38;;;18.88;;
60704;SDS011;46545;38.014;-7.874;2022-07-06T05:58:21;40.90;;;19.17;;
60704;SDS011;46545;38.014;-7.874;2022-07-06T06:00:25;34.75;;;17.65;;
60704;SDS011;46545;38.014;-7.874;2022-07-06T06:02:40;33.35;;;17.60;;
60704;SDS011;46545;38.014;-7.874;2022-07-06T06:04:44;29.10;;;17.13;;
60704;SDS011;46545;38.014;-7.874;2022-07-06T06:06:44;29.20;;;15.77;;
60704;SDS011;46545;38.014;-7.874;2022-07-06T06:08:45;35.67;;;15.70;;
60704;SDS011;46545;38.014;-7.874;2022-07-06T06:10:46;25.15;;;14.35;;
60704;SDS011;46545;38.014;-7.874;2022-07-06T06:12:51;25.77;;;14.95;;
60704;SDS011;46545;38.014;-7.874;2022-07-06T06:14:52;27.98;;;14.65;;
60704;SDS011;46545;38.014;-7.874;2022-07-06T06:16:58;27.08;;;15.48;;
60704;SDS011;46545;38.014;-7.874;2022-07-06T06:18:59;28.80;;;14.63;;
60704;SDS011;46545;38.014;-7.874;2022-07-06T06:23:32;32.22;;;15.27;;
60704;SDS011;46545;38.014;-7.874;2022-07-06T06:25:34;27.90;;;15.68;;
60704;SDS011;46545;38.014;-7.874;2022-07-06T06:27:36;28.23;;;13.98;;
60704;SDS011;46545;38.014;-7.874;2022-07-06T06:39:23;40.47;;;17.20;;
60704;SDS011;46545;38.014;-7.874;2022-07-06T06:41:24;29.55;;;15.52;;
60704;SDS011;46545;38.014;-7.874;2022-07-06T06:43:24;29.42;;;15.50;;
60704;SDS011;46545;38.014;-7.874;2022-07-06T06:45:33;33.75;;;15.30;;
60704;SDS011;46545;38.014;-7.874;2022-07-06T06:47:34;28.27;;;15.15;;
60704;SDS011;46545;38.014;-7.874;2022-07-06T06:49:35;27.73;;;13.63;;
60704;SDS011;46545;38.014;-7.874;2022-07-06T06:51:36;26.88;;;14.02;;
60704;SDS011;46545;38.014;-7.874;2022-07-06T06:53:39;26.92;;;13.80;;
60704;SDS011;46545;38.014;-7.874;2022-07-06T06:55:40;35.47;;;14.80;;
60704;SDS011;46545;38.014;-7.874;2022-07-06T06:57:41;26.13;;;13.60;;
60704;SDS011;46545;38.014;-7.874;2022-07-06T06:59:42;34.17;;;13.98;;
60704;SDS011;46545;38.014;-7.874;2022-07-06T07:01:42;31.67;;;14.00;;
60704;SDS011;46545;38.014;-7.874;2022-07-06T07:03:43;34.67;;;14.80;;
60704;SDS011;46545;38.014;-7.874;2022-07-06T07:05:44;24.25;;;12.20;;
60704;SDS011;46545;38.014;-7.874;2022-07-06T07:07:45;25.67;;;13.68;;
60704;SDS011;46545;38.014;-7.874;2022-07-06T07:09:46;29.38;;;14.98;;
60704;SDS011;46545;38.014;-7.874;2022-07-06T07:11:47;28.63;;;12.68;;
60704;SDS011;46545;38.014;-7.874;2022-07-06T07:13:48;26.60;;;11.80;;
60704;SDS011;46545;38.014;-7.874;2022-07-06T07:15:48;31.13;;;13.60;;
60704;SDS011;46545;38.014;-7.874;2022-07-06T07:17:49;25.88;;;13.27;;
60704;SDS011;46545;38.014;-7.874;2022-07-06T07:19:50;28.02;;;13.23;;
60704;SDS011;46545;38.014;-7.874;2022-07-06T07:21:50;29.48;;;14.40;;
60704;SDS011;46545;38.014;-7.874;2022-07-06T07:23:51;24.60;;;12.50;;
60704;SDS011;46545;38.014;-7.874;2022-07-06T07:25:52;16.60;;;9.57;;
60704;SDS011;46545;38.014;-7.874;2022-07-06T07:27:53;19.60;;;10.45;;
60704;SDS011;46545;38.014;-7.874;2022-07-06T07:29:54;18.85;;;11.32;;
60704;SDS011;46545;38.014;-7.874;2022-07-06T07:31:55;24.55;;;12.55;;
60704;SDS011;46545;38.014;-7.874;2022-07-06T07:33:55;25.38;;;12.27;;
60704;SDS011;46545;38.014;-7.874;2022-07-06T07:35:58;27.88;;;12.13;;
60704;SDS011;46545;38.014;-7.874;2022-07-06T07:37:59;25.52;;;12.27;;
60704;SDS011;46545;38.014;-7.874;2022-07-06T07:40:00;23.15;;;10.98;;
60704;SDS011;46545;38.014;-7.874;2022-07-06T07:42:01;23.25;;;11.63;;
60704;SDS011;46545;38.014;-7.874;2022-07-06T07:44:02;23.08;;;13.02;;
60704;SDS011;46545;38.014;-7.874;2022-07-06T07:46:03;22.88;;;12.95;;
60704;SDS011;46545;38.014;-7.874;2022-07-06T07:48:04;30.20;;;13.93;;
60704;SDS011;46545;38.014;-7.874;2022-07-06T07:50:05;30.13;;;13.82;;
60704;SDS011;46545;38.014;-7.874;2022-07-06T07:52:06;25.75;;;13.25;;
60704;SDS011;46545;38.014;-7.874;2022-07-06T07:54:07;20.67;;;13.23;;
60704;SDS011;46545;38.014;-7.874;2022-07-06T07:56:08;29.90;;;14.35;;
60704;SDS011;46545;38.014;-7.874;2022-07-06T07:58:09;26.40;;;14.57;;
60704;SDS011;46545;38.014;-7.874;2022-07-06T08:00:10;28.60;;;13.77;;
60704;SDS011;46545;38.014;-7.874;2022-07-06T08:02:13;23.35;;;13.35;;
60704;SDS011;46545;38.014;-7.874;2022-07-06T08:04:15;29.33;;;14.35;;
60704;SDS011;46545;38.014;-7.874;2022-07-06T08:06:15;29.83;;;15.30;;
60704;SDS011;46545;38.014;-7.874;2022-07-06T08:08:16;23.90;;;14.35;;
60704;SDS011;46545;38.014;-7.874;2022-07-06T08:10:17;26.40;;;15.40;;
60704;SDS011;46545;38.014;-7.874;2022-07-06T08:12:19;25.17;;;14.65;;
60704;SDS011;46545;38.014;-7.874;2022-07-06T08:14:20;28.70;;;15.50;;
60704;SDS011;46545;38.014;-7.874;2022-07-06T08:16:20;24.77;;;14.88;;
60704;SDS011;46545;38.014;-7.874;2022-07-06T08:18:21;26.48;;;14.50;;
60704;SDS011;46545;38.014;-7.874;2022-07-06T08:20:22;26.25;;;15.75;;
60704;SDS011;46545;38.014;-7.874;2022-07-06T08:22:23;25.58;;;14.77;;
60704;SDS011;46545;38.014;-7.874;2022-07-06T08:24:24;25.80;;;14.38;;
60704;SDS011;46545;38.014;-7.874;2022-07-06T08:26:24;23.02;;;14.40;;
60704;SDS011;46545;38.014;-7.874;2022-07-06T08:28:25;24.90;;;14.10;;
60704;SDS011;46545;38.014;-7.874;2022-07-06T08:30:26;22.75;;;14.27;;
60704;SDS011;46545;38.014;-7.874;2022-07-06T08:32:26;24.65;;;14.65;;
60704;SDS011;46545;38.014;-7.874;2022-07-06T08:34:27;32.35;;;16.33;;
60704;SDS011;46545;38.014;-7.874;2022-07-06T08:36:28;29.02;;;17.08;;
60704;SDS011;46545;38.014;-7.874;2022-07-06T08:38:29;33.00;;;16.67;;
60704;SDS011;46545;38.014;-7.874;2022-07-06T08:40:31;31.83;;;17.10;;
60704;SDS011;46545;38.014;-7.874;2022-07-06T08:42:35;27.67;;;16.17;;
60704;SDS011;46545;38.014;-7.874;2022-07-06T08:44:36;35.30;;;18.08;;
60704;SDS011;46545;38.014;-7.874;2022-07-06T08:46:38;26.98;;;16.80;;
60704;SDS011;46545;38.014;-7.874;2022-07-06T08:48:40;29.33;;;17.85;;
60704;SDS011;46545;38.014;-7.874;2022-07-06T08:50:41;34.10;;;18.40;;
60704;SDS011;46545;38.014;-7.874;2022-07-06T08:52:43;31.88;;;16.30;;
60704;SDS011;46545;38.014;-7.874;2022-07-06T08:54:44;29.50;;;17.58;;
60704;SDS011;46545;38.014;-7.874;2022-07-06T08:56:45;28.00;;;16.70;;
60704;SDS011;46545;38.014;-7.874;2022-07-06T08:58:46;26.40;;;16.38;;
60704;SDS011;46545;38.014;-7.874;2022-07-06T09:00:46;34.33;;;18.08;;
60704;SDS011;46545;38.014;-7.874;2022-07-06T09:02:48;33.88;;;19.17;;
60704;SDS011;46545;38.014;-7.874;2022-07-06T09:04:51;30.88;;;19.67;;
60704;SDS011;46545;38.014;-7.874;2022-07-06T09:06:56;27.52;;;17.88;;
60704;SDS011;46545;38.014;-7.874;2022-07-06T09:08:57;31.17;;;18.60;;
60704;SDS011;46545;38.014;-7.874;2022-07-06T09:10:59;30.52;;;18.08;;
60704;SDS011;46545;38.014;-7.874;2022-07-06T09:13:06;25.98;;;18.02;;
60704;SDS011;46545;38.014;-7.874;2022-07-06T09:15:08;30.73;;;18.92;;
60704;SDS011;46545;38.014;-7.874;2022-07-06T09:17:09;28.60;;;17.70;;
60704;SDS011;46545;38.014;-7.874;2022-07-06T09:19:11;23.63;;;16.02;;
60704;SDS011;46545;38.014;-7.874;2022-07-06T09:21:23;24.70;;;17.02;;
60704;SDS011;46545;38.014;-7.874;2022-07-06T09:23:26;26.30;;;16.70;;
60704;SDS011;46545;38.014;-7.874;2022-07-06T09:25:27;27.95;;;17.65;;
60704;SDS011;46545;38.014;-7.874;2022-07-06T09:27:28;23.25;;;16.08;;
60704;SDS011;46545;38.014;-7.874;2022-07-06T09:29:30;21.70;;;15.50;;
60704;SDS011;46545;38.014;-7.874;2022-07-06T09:31:32;25.88;;;15.20;;
60704;SDS011;46545;38.014;-7.874;2022-07-06T09:33:32;22.35;;;13.73;;
60704;SDS011;46545;38.014;-7.874;2022-07-06T09:35:37;21.95;;;14.45;;
60704;SDS011;46545;38.014;-7.874;2022-07-06T09:37:39;22.75;;;15.07;;
60704;SDS011;46545;38.014;-7.874;2022-07-06T09:39:40;32.33;;;16.67;;
60704;SDS011;46545;38.014;-7.874;2022-07-06T09:41:40;20.23;;;14.65;;
60704;SDS011;46545;38.014;-7.874;2022-07-06T09:43:41;22.90;;;15.07;;
60704;SDS011;46545;38.014;-7.874;2022-07-06T09:45:46;23.98;;;16.48;;
60704;SDS011;46545;38.014;-7.874;2022-07-06T09:47:52;23.45;;;15.73;;
60704;SDS011;46545;38.014;-7.874;2022-07-06T09:49:55;23.02;;;15.70;;
60704;SDS011;46545;38.014;-7.874;2022-07-06T09:51:56;27.73;;;15.77;;
60704;SDS011;46545;38.014;-7.874;2022-07-06T09:53:59;22.02;;;15.93;;
60704;SDS011;46545;38.014;-7.874;2022-07-06T09:55:59;25.23;;;15.25;;
60704;SDS011;46545;38.014;-7.874;2022-07-06T09:58:02;24.95;;;16.58;;
60704;SDS011;46545;38.014;-7.874;2022-07-06T10:00:05;21.98;;;15.48;;
60704;SDS011;46545;38.014;-7.874;2022-07-06T10:02:12;21.48;;;14.43;;
60704;SDS011;46545;38.014;-7.874;2022-07-06T10:04:14;22.00;;;14.50;;
60704;SDS011;46545;38.014;-7.874;2022-07-06T10:06:18;23.08;;;16.30;;
60704;SDS011;46545;38.014;-7.874;2022-07-06T10:08:21;24.03;;;14.83;;
60704;SDS011;46545;38.014;-7.874;2022-07-06T10:10:24;22.30;;;14.32;;
60704;SDS011;46545;38.014;-7.874;2022-07-06T10:12:25;21.65;;;14.00;;
60704;SDS011;46545;38.014;-7.874;2022-07-06T10:14:30;23.80;;;14.57;;
60704;SDS011;46545;38.014;-7.874;2022-07-06T10:16:33;19.40;;;12.95;;
60704;SDS011;46545;38.014;-7.874;2022-07-06T10:18:36;19.65;;;13.02;;
60704;SDS011;46545;38.014;-7.874;2022-07-06T10:20:37;22.70;;;12.90;;
60704;SDS011;46545;38.014;-7.874;2022-07-06T10:22:39;15.57;;;11.65;;
60704;SDS011;46545;38.014;-7.874;2022-07-06T10:24:40;21.10;;;13.30;;
60704;SDS011;46545;38.014;-7.874;2022-07-06T10:26:43;22.17;;;13.73;;
60704;SDS011;46545;38.014;-7.874;2022-07-06T10:28:45;19.73;;;13.18;;
60704;SDS011;46545;38.014;-7.874;2022-07-06T10:30:47;20.23;;;12.77;;
60704;SDS011;46545;38.014;-7.874;2022-07-06T10:32:50;20.85;;;13.88;;
60704;SDS011;46545;38.014;-7.874;2022-07-06T10:34:51;19.88;;;12.18;;
60704;SDS011;46545;38.014;-7.874;2022-07-06T10:36:52;26.33;;;13.65;;
60704;SDS011;46545;38.014;-7.874;2022-07-06T10:38:55;17.55;;;12.45;;
60704;SDS011;46545;38.014;-7.874;2022-07-06T10:41:01;15.45;;;12.00;;
60704;SDS011;46545;38.014;-7.874;2022-07-06T10:43:08;16.83;;;11.65;;
60704;SDS011;46545;38.014;-7.874;2022-07-06T10:45:13;18.00;;;12.45;;
60704;SDS011;46545;38.014;-7.874;2022-07-06T10:47:15;18.42;;;10.63;;
60704;SDS011;46545;38.014;-7.874;2022-07-06T10:49:16;16.98;;;10.80;;
60704;SDS011;46545;38.014;-7.874;2022-07-06T10:51:24;16.58;;;10.98;;
60704;SDS011;46545;38.014;-7.874;2022-07-06T10:53:27;17.35;;;11.85;;
60704;SDS011;46545;38.014;-7.874;2022-07-06T10:55:36;23.20;;;12.38;;
60704;SDS011;46545;38.014;-7.874;2022-07-06T10:57:51;19.05;;;12.02;;
60704;SDS011;46545;38.014;-7.874;2022-07-06T11:00:02;14.88;;;11.07;;
60704;SDS011;46545;38.014;-7.874;2022-07-06T11:04:11;15.55;;;9.88;;
60704;SDS011;46545;38.014;-7.874;2022-07-06T11:08:17;18.55;;;9.55;;
60704;SDS011;46545;38.014;-7.874;2022-07-06T11:10:17;15.55;;;10.30;;
60704;SDS011;46545;38.014;-7.874;2022-07-06T11:12:18;17.98;;;10.45;;
60704;SDS011;46545;38.014;-7.874;2022-07-06T11:14:20;18.92;;;11.93;;
60704;SDS011;46545;38.014;-7.874;2022-07-06T11:16:23;15.75;;;9.32;;
60704;SDS011;46545;38.014;-7.874;2022-07-06T11:18:26;17.13;;;10.40;;
60704;SDS011;46545;38.014;-7.874;2022-07-06T11:20:27;36.60;;;27.27;;
60704;SDS011;46545;38.014;-7.874;2022-07-06T11:22:27;26.98;;;17.70;;
60704;SDS011;46545;38.014;-7.874;2022-07-06T11:24:31;20.08;;;11.27;;
60704;SDS011;46545;38.014;-7.874;2022-07-06T11:26:34;18.08;;;9.55;;
60704;SDS011;46545;38.014;-7.874;2022-07-06T11:28:37;20.73;;;10.85;;
60704;SDS011;46545;38.014;-7.874;2022-07-06T11:30:41;16.42;;;8.98;;
60704;SDS011;46545;38.014;-7.874;2022-07-06T11:32:41;14.43;;;8.63;;
60704;SDS011;46545;38.014;-7.874;2022-07-06T11:34:43;13.98;;;7.95;;
60704;SDS011;46545;38.014;-7.874;2022-07-06T11:36:44;14.07;;;9.30;;
60704;SDS011;46545;38.014;-7.874;2022-07-06T11:38:46;15.10;;;8.98;;
60704;SDS011;46545;38.014;-7.874;2022-07-06T11:40:48;12.05;;;9.50;;
60704;SDS011;46545;38.014;-7.874;2022-07-06T11:42:54;15.35;;;9.73;;
60704;SDS011;46545;38.014;-7.874;2022-07-06T11:44:55;18.08;;;9.00;;
60704;SDS011;46545;38.014;-7.874;2022-07-06T11:46:56;13.20;;;8.75;;
60704;SDS011;46545;38.014;-7.874;2022-07-06T11:49:04;14.10;;;9.23;;
60704;SDS011;46545;38.014;-7.874;2022-07-06T11:51:09;13.73;;;8.40;;
60704;SDS011;46545;38.014;-7.874;2022-07-06T11:53:09;16.02;;;9.68;;
60704;SDS011;46545;38.014;-7.874;2022-07-06T11:55:13;15.40;;;9.85;;
60704;SDS011;46545;38.014;-7.874;2022-07-06T11:57:14;9.55;;;8.07;;
60704;SDS011;46545;38.014;-7.874;2022-07-06T11:59:16;12.70;;;8.18;;
60704;SDS011;46545;38.014;-7.874;2022-07-06T12:01:22;12.85;;;8.70;;